createdAt,value
2018-07-10T00:00:35.793Z,3.00
2018-07-10T00:06:17.832Z,2.77
2018-07-10T00:11:57.584Z,3.07
2018-07-10T00:15:22.461Z,3.47
2018-07-10T00:18:47.165Z,3.63
2018-07-10T00:22:11.594Z,3.57
2018-07-10T00:25:36.322Z,3.83
2018-07-10T00:29:00.985Z,3.50
2018-07-10T00:32:25.282Z,3.30
2018-07-10T00:35:50.041Z,3.27
2018-07-10T00:39:14.797Z,3.63
2018-07-10T00:42:39.567Z,3.33
2018-07-10T00:46:04.339Z,3.47
2018-07-10T00:49:29.153Z,3.27
2018-07-10T00:52:53.869Z,3.30
2018-07-10T00:56:18.593Z,3.10
2018-07-10T00:59:43.286Z,2.90
2018-07-10T01:03:08.151Z,3.10
2018-07-10T01:06:33.004Z,2.97
2018-07-10T01:09:57.753Z,2.83
2018-07-10T01:13:22.510Z,3.27
2018-07-10T01:16:47.262Z,3.40
2018-07-10T01:20:12.156Z,3.27
2018-07-10T01:23:38.786Z,3.30
2018-07-10T01:27:03.583Z,3.40
2018-07-10T01:30:28.349Z,3.10
2018-07-10T01:33:53.081Z,3.47
2018-07-10T01:37:17.836Z,3.10
2018-07-10T01:40:43.854Z,3.27
2018-07-10T01:44:08.527Z,3.23
2018-07-10T01:47:33.210Z,3.47
2018-07-10T01:50:57.954Z,3.07
2018-07-10T01:54:22.257Z,3.30
2018-07-10T01:57:47.073Z,2.90
2018-07-10T02:01:11.860Z,3.40
2018-07-10T02:04:38.106Z,2.90
2018-07-10T02:08:03.288Z,2.97
2018-07-10T02:11:28.138Z,3.13
2018-07-10T02:14:52.828Z,3.03
2018-07-10T02:18:17.590Z,3.07
2018-07-10T02:21:41.850Z,3.10
2018-07-10T02:25:06.673Z,3.10
2018-07-10T02:28:31.412Z,3.00
2018-07-10T02:31:56.241Z,2.97
2018-07-10T02:35:20.962Z,3.20
2018-07-10T02:38:48.777Z,2.90
2018-07-10T02:42:13.101Z,2.97
2018-07-10T02:45:37.874Z,3.17
2018-07-10T02:49:11.338Z,2.90
2018-07-10T02:52:39.995Z,3.17
2018-07-10T02:56:05.515Z,3.27
2018-07-10T02:59:36.522Z,2.83
2018-07-10T03:03:02.534Z,3.23
2018-07-10T03:06:27.218Z,2.80
2018-07-10T03:09:51.971Z,3.47
2018-07-10T03:13:17.318Z,3.20
2018-07-10T03:16:42.076Z,3.03
2018-07-10T03:20:07.711Z,3.00
2018-07-10T03:23:32.418Z,3.20
2018-07-10T03:26:57.093Z,3.93
2018-07-10T03:30:22.066Z,3.17
2018-07-10T03:33:46.897Z,2.97
2018-07-10T03:37:12.668Z,3.27
2018-07-10T03:40:37.424Z,2.97
2018-07-10T03:44:02.166Z,3.10
2018-07-10T03:47:28.122Z,2.87
2018-07-10T03:50:53.400Z,3.33
2018-07-10T03:54:19.084Z,3.00
2018-07-10T03:57:43.952Z,2.73
2018-07-10T04:01:08.780Z,3.00
2018-07-10T04:04:33.534Z,3.20
2018-07-10T04:07:58.908Z,3.00
2018-07-10T04:11:24.717Z,2.80
2018-07-10T04:14:49.471Z,3.03
2018-07-10T04:18:16.132Z,2.70
2018-07-10T04:21:40.892Z,3.40
2018-07-10T04:25:05.705Z,3.20
2018-07-10T04:28:35.763Z,3.43
2018-07-10T04:32:01.790Z,3.23
2018-07-10T04:35:28.361Z,3.07
2018-07-10T04:38:57.206Z,3.10
2018-07-10T04:42:29.566Z,2.93
2018-07-10T04:45:57.177Z,2.90
2018-07-10T04:49:30.719Z,3.40
2018-07-10T04:53:03.254Z,3.00
2018-07-10T04:56:28.953Z,2.80
2018-07-10T04:59:53.691Z,3.27
2018-07-10T05:03:20.668Z,3.43
2018-07-10T05:06:45.431Z,3.07
2018-07-10T05:10:10.485Z,3.43
2018-07-10T05:13:36.146Z,3.30
2018-07-10T05:17:01.431Z,3.20
2018-07-10T05:20:27.378Z,3.90
2018-07-10T05:23:52.214Z,3.90
2018-07-10T05:27:17.247Z,3.27
2018-07-10T05:30:43.960Z,3.33
2018-07-10T05:34:08.824Z,4.00
2018-07-10T05:37:37.267Z,3.40
2018-07-10T05:41:01.999Z,3.80
2018-07-10T05:44:26.338Z,5.03
2018-07-10T05:47:57.570Z,3.67
2018-07-10T05:51:23.554Z,4.17
2018-07-10T05:54:48.469Z,3.60
2018-07-10T05:58:12.921Z,4.10
2018-07-10T06:01:38.964Z,3.93
2018-07-10T06:05:03.741Z,3.83
2018-07-10T06:08:28.581Z,3.80
2018-07-10T06:11:53.278Z,3.50
2018-07-10T06:15:18.533Z,3.67
2018-07-10T06:18:44.212Z,4.07
2018-07-10T06:22:09.121Z,3.87
2018-07-10T06:25:35.814Z,4.13
2018-07-10T06:29:05.119Z,3.77
2018-07-10T06:32:36.846Z,4.23
2018-07-10T06:36:18.898Z,4.43
2018-07-10T06:39:43.603Z,4.30
2018-07-10T06:44:12.512Z,3.47
2018-07-10T06:47:48.757Z,4.17
2018-07-10T06:51:19.858Z,4.03
2018-07-10T06:54:57.511Z,3.77
2018-07-10T06:58:23.861Z,3.90
2018-07-10T07:01:49.621Z,3.50
2018-07-10T07:05:14.985Z,3.50
2018-07-10T07:08:39.848Z,3.67
2018-07-10T07:12:05.309Z,3.90
2018-07-10T07:15:30.104Z,3.97
2018-07-10T07:19:01.172Z,4.20
2018-07-10T07:22:26.295Z,3.87
2018-07-10T07:26:01.799Z,3.83
2018-07-10T07:29:27.634Z,3.87
2018-07-10T07:36:05.787Z,4.07
2018-07-10T07:39:31.703Z,4.20
2018-07-10T07:43:05.348Z,3.93
2018-07-10T07:46:31.322Z,3.13
2018-07-10T07:49:56.317Z,3.70
2018-07-10T07:53:21.444Z,3.70
2018-07-10T07:56:47.645Z,4.03
2018-07-10T08:00:12.383Z,3.70
2018-07-10T08:03:38.611Z,3.10
2018-07-10T08:07:03.411Z,3.40
2018-07-10T08:10:28.273Z,3.40
2018-07-10T08:13:53.233Z,3.53
2018-07-10T08:17:18.207Z,3.37
2018-07-10T08:20:43.133Z,4.03
2018-07-10T08:24:09.147Z,3.73
2018-07-10T08:27:37.327Z,3.47
2018-07-10T08:31:03.939Z,3.33
2018-07-10T08:34:30.325Z,3.80
2018-07-10T08:37:55.361Z,3.60
2018-07-10T08:41:22.519Z,4.03
2018-07-10T08:44:47.266Z,3.83
2018-07-10T08:48:13.060Z,3.23
2018-07-10T08:51:38.016Z,3.27
2018-07-10T08:55:03.375Z,3.73
2018-07-10T08:58:28.226Z,3.80
2018-07-10T09:01:53.358Z,3.50
2018-07-10T09:05:18.199Z,3.43
2018-07-10T09:08:42.959Z,3.53
2018-07-10T09:12:07.352Z,3.60
2018-07-10T09:15:33.307Z,3.63
2018-07-10T09:18:57.677Z,4.00
2018-07-10T09:22:22.382Z,4.00
2018-07-10T09:25:47.230Z,3.90
2018-07-10T09:29:11.527Z,3.77
2018-07-10T09:32:41.669Z,3.87
2018-07-10T09:36:06.308Z,4.23
2018-07-10T09:39:31.277Z,3.90
2018-07-10T09:43:01.413Z,4.10
2018-07-10T09:46:29.861Z,4.10
2018-07-10T09:49:54.719Z,3.80
2018-07-10T09:53:19.478Z,3.53
2018-07-10T09:56:44.471Z,4.17
2018-07-10T10:00:09.314Z,3.70
2018-07-10T10:03:34.835Z,3.67
2018-07-10T10:07:00.342Z,3.17
2018-07-10T10:10:25.310Z,3.77
2018-07-10T10:13:50.308Z,3.27
2018-07-10T10:17:16.184Z,4.23
2018-07-10T10:20:42.078Z,3.60
2018-07-10T10:24:06.487Z,4.10
2018-07-10T10:27:32.601Z,3.90
2018-07-10T10:30:57.363Z,3.70
2018-07-10T10:34:22.026Z,2.90
2018-07-10T10:37:47.247Z,3.80
2018-07-10T10:41:13.511Z,3.37
2018-07-10T10:44:38.198Z,3.30
2018-07-10T10:48:02.695Z,3.90
2018-07-10T10:51:27.513Z,3.20
2018-07-10T10:54:52.276Z,3.70
2018-07-10T10:58:17.067Z,3.33
2018-07-10T11:01:41.405Z,3.50
2018-07-10T11:05:06.265Z,3.30
2018-07-10T11:08:31.135Z,3.20
2018-07-10T11:11:57.244Z,3.20
2018-07-10T11:15:22.318Z,3.23
2018-07-10T11:19:00.905Z,3.50
2018-07-10T11:22:25.988Z,3.27
2018-07-10T11:25:50.970Z,3.20
2018-07-10T11:29:16.009Z,3.50
2018-07-10T11:32:40.755Z,3.07
2018-07-10T11:36:05.465Z,3.20
2018-07-10T11:39:30.636Z,3.43
2018-07-10T11:42:55.288Z,3.73
2018-07-10T11:46:20.042Z,3.60
2018-07-10T11:49:44.338Z,3.57
2018-07-10T11:53:10.091Z,3.67
2018-07-10T11:56:34.861Z,3.47
2018-07-10T11:59:59.681Z,3.10
2018-07-10T12:03:25.878Z,3.47
2018-07-10T12:06:52.345Z,3.27
2018-07-10T12:10:26.188Z,3.17
2018-07-10T12:13:50.907Z,3.03
2018-07-10T12:17:15.217Z,2.60
2018-07-10T12:20:41.461Z,3.30
2018-07-10T12:24:06.772Z,2.87
2018-07-10T12:27:31.771Z,2.60
2018-07-10T12:30:56.461Z,2.90
2018-07-10T12:34:21.151Z,2.67
2018-07-10T12:37:45.893Z,2.30
2018-07-10T12:41:11.677Z,2.83
2018-07-10T12:44:36.390Z,2.80
2018-07-10T12:48:01.163Z,3.00
2018-07-10T12:51:25.905Z,2.47
2018-07-10T12:54:50.919Z,2.60
2018-07-10T12:58:16.792Z,3.20
2018-07-10T13:01:41.497Z,2.63
2018-07-10T13:05:07.514Z,2.43
2018-07-10T13:08:33.287Z,2.87
2018-07-10T13:11:57.671Z,2.37
2018-07-10T13:15:22.503Z,2.40
2018-07-10T13:18:47.254Z,2.37
2018-07-10T13:22:11.994Z,2.73
2018-07-10T13:25:36.709Z,2.70
2018-07-10T13:29:01.458Z,2.60
2018-07-10T13:32:26.264Z,2.77
2018-07-10T13:35:51.131Z,2.83
2018-07-10T13:39:15.761Z,2.77
2018-07-10T13:42:48.981Z,2.73
2018-07-10T13:46:13.672Z,2.83
2018-07-10T13:49:37.927Z,2.97
2018-07-10T13:53:04.153Z,2.70
2018-07-10T13:56:28.795Z,2.70
2018-07-10T13:59:53.443Z,2.90
2018-07-10T14:03:18.164Z,2.77
2018-07-10T14:06:42.559Z,2.60
2018-07-10T14:10:07.277Z,3.00
2018-07-10T14:13:31.635Z,2.77
2018-07-10T14:16:56.371Z,2.60
2018-07-10T14:20:21.060Z,2.50
2018-07-10T14:23:45.792Z,2.50
2018-07-10T14:27:10.519Z,2.63
2018-07-10T14:30:36.244Z,2.53
2018-07-10T14:34:00.951Z,2.47
2018-07-10T14:37:25.298Z,2.70
2018-07-10T14:40:51.268Z,2.90
2018-07-10T14:44:16.160Z,2.70
2018-07-10T14:47:40.837Z,3.20
2018-07-10T14:51:05.543Z,3.20
2018-07-10T14:54:30.256Z,2.87
2018-07-10T14:57:55.762Z,3.10
2018-07-10T15:01:20.474Z,2.83
2018-07-10T15:04:45.186Z,2.63
2018-07-10T15:09:38.928Z,3.27
2018-07-10T15:13:03.630Z,2.80
2018-07-10T15:16:33.112Z,3.10
2018-07-10T15:19:57.882Z,3.43
2018-07-10T15:23:22.679Z,3.10
2018-07-10T15:26:47.321Z,3.03
2018-07-10T15:30:12.114Z,3.40
2018-07-10T15:33:36.835Z,3.53
2018-07-10T15:37:02.188Z,3.13
2018-07-10T15:40:26.918Z,3.10
2018-07-10T15:43:51.607Z,2.63
2018-07-10T15:47:16.317Z,3.00
2018-07-10T15:50:41.090Z,2.73
2018-07-10T15:54:05.445Z,2.80
2018-07-10T15:57:29.796Z,2.93
2018-07-10T16:00:54.548Z,2.80
2018-07-10T16:04:19.322Z,2.73
2018-07-10T16:07:44.076Z,3.10
2018-07-10T16:11:08.376Z,3.30
2018-07-10T16:14:33.047Z,3.00
2018-07-10T16:17:57.376Z,3.33
2018-07-10T16:21:22.104Z,3.10
2018-07-10T16:24:51.115Z,2.93
2018-07-10T16:28:18.297Z,3.30
2018-07-10T16:31:45.449Z,3.20
2018-07-10T16:35:10.750Z,3.43
2018-07-10T16:38:37.282Z,3.67
2018-07-10T16:42:07.261Z,3.20
2018-07-10T16:45:37.594Z,3.80
2018-07-10T16:49:43.861Z,3.60
2018-07-10T16:53:08.620Z,4.03
2018-07-10T16:56:33.363Z,3.70
2018-07-10T16:59:58.544Z,3.50
2018-07-10T17:03:23.249Z,3.20
2018-07-10T17:06:47.971Z,3.57
2018-07-10T17:10:12.930Z,3.87
2018-07-10T17:13:38.694Z,3.80
2018-07-10T17:17:03.425Z,3.80
2018-07-10T17:20:28.309Z,4.00
2018-07-10T17:23:53.832Z,3.90
2018-07-10T17:27:23.319Z,3.37
2018-07-10T17:30:48.021Z,3.50
2018-07-10T17:34:12.874Z,3.83
2018-07-10T17:37:48.273Z,3.93
2018-07-10T17:41:13.168Z,4.00
2018-07-10T17:44:39.128Z,3.60
2018-07-10T17:48:03.871Z,3.77
2018-07-10T17:51:31.887Z,3.90
2018-07-10T17:54:56.608Z,3.70
2018-07-10T17:58:23.115Z,4.00
2018-07-10T18:01:48.050Z,3.73
2018-07-10T18:05:13.067Z,3.80
2018-07-10T18:08:39.045Z,3.53
2018-07-10T18:12:04.193Z,4.07
2018-07-10T18:15:29.221Z,3.70
2018-07-10T18:18:54.234Z,3.80
2018-07-10T18:22:19.496Z,3.50
2018-07-10T18:25:44.512Z,4.17
2018-07-10T18:29:09.434Z,3.60
2018-07-10T18:32:34.076Z,4.47
2018-07-10T18:35:59.726Z,4.27
2018-07-10T18:39:24.659Z,4.10
2018-07-10T18:42:49.783Z,3.90
2018-07-10T18:46:14.834Z,4.23
2018-07-10T18:49:39.908Z,4.10
2018-07-10T18:53:04.819Z,4.73
2018-07-10T18:56:30.785Z,4.60
2018-07-10T19:00:06.480Z,4.30
2018-07-10T19:03:34.656Z,4.40
2018-07-10T19:06:59.244Z,4.27
2018-07-10T19:10:24.408Z,4.80
2018-07-10T19:13:49.357Z,4.00
2018-07-10T19:17:17.996Z,4.57
2018-07-10T19:20:53.887Z,5.17
2018-07-10T19:24:19.709Z,4.90
2018-07-10T19:27:46.723Z,5.33
2018-07-10T19:31:19.433Z,7.90
2018-07-10T19:34:44.653Z,8.83
2018-07-10T19:38:10.266Z,7.87
2018-07-10T19:41:34.971Z,7.80
2018-07-10T19:45:02.199Z,8.00
2018-07-10T19:48:26.971Z,9.10
2018-07-10T19:51:52.089Z,7.63
2018-07-10T19:55:18.598Z,6.33
2018-07-10T19:58:45.279Z,4.97
2018-07-10T20:02:10.787Z,5.77
2018-07-10T20:05:36.910Z,5.53
2018-07-10T20:09:08.822Z,5.97
2018-07-10T20:12:39.304Z,5.63
2018-07-10T20:16:09.637Z,5.40
2018-07-10T20:19:44.476Z,5.10
2018-07-10T20:23:30.180Z,5.33
2018-07-10T20:27:10.522Z,4.90
2018-07-10T20:30:53.271Z,5.37
2018-07-10T20:34:55.390Z,5.20
2018-07-10T20:38:21.109Z,4.73
2018-07-10T20:41:47.722Z,4.83
2018-07-10T20:45:13.186Z,4.73
2018-07-10T20:48:55.898Z,4.83
2018-07-10T20:53:01.377Z,5.07
2018-07-10T20:58:49.649Z,4.97
2018-07-10T21:04:27.766Z,4.93
2018-07-10T21:07:57.648Z,4.33
2018-07-10T21:11:28.336Z,4.57
2018-07-10T21:15:05.603Z,4.60
2018-07-10T21:19:47.457Z,4.23
2018-07-10T21:23:26.797Z,4.37
2018-07-10T21:27:01.251Z,4.40
2018-07-10T21:30:49.778Z,4.40
2018-07-10T21:34:25.160Z,5.23
2018-07-10T21:38:02.965Z,4.40
2018-07-10T21:42:51.096Z,4.97
2018-07-10T21:46:33.821Z,4.43
2018-07-10T21:50:02.310Z,4.50
2018-07-10T21:53:27.543Z,4.30
2018-07-10T21:56:53.220Z,4.37
2018-07-10T22:00:18.581Z,4.20
2018-07-10T22:03:43.850Z,4.60
2018-07-10T22:07:13.412Z,4.20
2018-07-10T22:10:38.650Z,3.90
2018-07-10T22:14:03.976Z,3.87
2018-07-10T22:17:29.355Z,4.60
2018-07-10T22:20:54.712Z,4.07
2018-07-10T22:24:20.367Z,4.00
2018-07-10T22:27:45.782Z,3.97
2018-07-10T22:31:17.096Z,4.30
2018-07-10T22:34:45.275Z,4.17
2018-07-10T22:38:10.049Z,4.30
2018-07-10T22:41:35.417Z,4.07
2018-07-10T22:45:01.020Z,4.00
2018-07-10T22:48:26.411Z,4.07
2018-07-10T22:51:51.668Z,3.70
2018-07-10T22:55:20.956Z,3.40
2018-07-10T22:58:46.297Z,3.30
2018-07-10T23:02:17.089Z,3.50
2018-07-10T23:05:44.219Z,3.27
2018-07-10T23:09:08.551Z,3.87
2018-07-10T23:12:33.262Z,3.50
2018-07-10T23:15:58.015Z,3.10
2018-07-10T23:19:22.779Z,3.27
2018-07-10T23:22:55.916Z,3.27
2018-07-10T23:26:20.730Z,3.33
2018-07-10T23:29:45.463Z,3.00
2018-07-10T23:33:15.940Z,2.97
2018-07-10T23:36:40.374Z,3.13
2018-07-10T23:40:05.694Z,3.27
2018-07-10T23:43:38.800Z,2.80
2018-07-10T23:47:13.283Z,3.13
2018-07-10T23:50:38.328Z,3.17
2018-07-10T23:54:03.043Z,3.10
2018-07-10T23:57:27.724Z,3.30
